KWIWEYAU3 Weather Reports


time (UTC)temp
C
wind
direction
speed
KPH
gust
KPH
rain 1hr
cm
rain 24hr
cm
rain mn
cm
humidity
%
barometer
mb
20260503174015 19 315 11.3 25.7 0.00 0.00 0.00 44 1004.6
20260503173016 19 270 11.3 20.9 0.00 0.00 0.00 44 1004.6
20260503172015 19 315 9.7 19.3 0.00 0.00 0.00 47 1004.8
20260503171015 18 270 8.0 17.7 0.00 0.00 0.00 47 1005.0
20260503131018 11 203 1.6 3.2 0.00 0.00 0.00 63 1007.5
20260503081017 8 270 1.6 9.7 0.00 0.00 0.00 63 1009.6
20260503072037 7 0.0 4.8 0.00 0.00 0.00 67 1009.7
20260503071017 7 0.0 4.8 0.00 0.00 0.00 67 1009.8
20260503055017 8 0.0 0.0 0.00 0.00 0.00 70 1010.6
20260503054016 7 0.0 1.6 0.00 0.00 0.00 69 1010.8
20260503053017 7 0.0 1.6 0.00 0.00 0.00 70 1010.8
20260503052016 7 0.0 0.0 0.00 0.00 0.00 74 1010.9
20260503051016 7 0.0 0.0 0.00 0.00 0.00 74 1011.0
20260503050016 6 0.0 0.0 0.00 0.00 0.00 76 1010.9
20260503045016 6 0.0 0.0 0.00 0.00 0.00 79 1011.0
20260503044037 6 0.0 0.0 0.00 0.00 0.00 82 1011.0
20260503043036 5 0.0 0.0 0.00 0.00 0.00 85 1011.1
20260503042016 5 0.0 0.0 0.00 0.00 0.00 87 1011.2
20260503041016 4 0.0 0.0 0.00 0.00 0.00 87 1011.2
20260503040016 3 0.0 1.6 0.00 0.00 0.00 85 1011.3
20260503035037 3 0.0 0.0 0.00 0.00 0.00 84 1011.3
20260503034016 4 0.0 0.0 0.00 0.00 0.00 83 1011.4
20260503033016 4 0.0 0.0 0.00 0.00 0.00 84 1011.5
20260503032016 4 0.0 0.0 0.00 0.00 0.00 84 1011.6
20260503031017 4 0.0 0.0 0.00 0.00 0.00 80 1011.6
20260503030017 5 0.0 0.0 0.00 0.00 0.00 80 1011.7
20260503025015 5 0.0 1.6 0.00 0.00 0.00 80 1011.8
20260503024036 5 0.0 0.0 0.00 0.00 0.00 80 1011.8
20260503023016 5 0.0 0.0 0.00 0.00 0.00 77 1011.8
20260503022018 5 0.0 0.0 0.00 0.00 0.00 74 1011.8
20260503020017 6 0.0 0.0 0.00 0.00 0.00 70 1011.9
20260503015015 6 0.0 0.0 0.00 0.00 0.00 63 1011.9
20260503014016 7 0.0 0.0 0.00 0.00 0.00 62 1011.9
20260503013018 8 0.0 0.0 0.00 0.00 0.00 58 1011.9
20260503012016 9 0.0 0.0 0.00 0.00 0.00 53 1011.9
20260503011015 11 0.0 0.0 0.00 0.00 0.00 48 1012.0
20260503010015 12 0.0 0.0 0.00 0.00 0.00 43 1012.0
20260503005016 12 0.0 1.6 0.00 0.00 0.00 40 1012.0
20260503004036 13 0.0 1.6 0.00 0.00 0.00 39 1011.9
20260503003036 13 0.0 3.2 0.00 0.00 0.00 38 1011.9
20260503002016 14 0 4.8 11.3 0.00 0.00 0.00 36 1011.9
20260503001016 15 0 6.4 14.5 0.00 0.00 0.00 36 1011.9
20260503000036 15 0 6.4 11.3 0.00 0.00 0.00 34 1012.0
20260502235016 15 0 8.0 14.5 0.00 0.00 0.00 35 1012.0
20260502234015 15 338 3.2 9.7 0.00 0.00 0.00 35 1012.0
20260502233057 15 0 8.0 12.9 0.00 0.00 0.00 34 1012.1
20260502232015 15 0 11.3 20.9 0.00 0.00 0.00 34 1012.1
20260502231016 15 0 9.7 24.1 0.00 0.00 0.00 33 1012.3
20260502230015 16 338 4.8 16.1 0.00 0.00 0.00 33 1012.3
20260502225016 15 338 8.0 19.3 0.00 0.00 0.00 32 1012.4
20260502224016 16 0 6.4 12.9 0.00 0.00 0.00 32 1012.5
20260502223015 16 338 8.0 22.5 0.00 0.00 0.00 32 1012.5
20260502222015 15 0 11.3 22.5 0.00 0.00 0.00 32 1012.5
20260502221017 15 0 9.7 19.3 0.00 0.00 0.00 34 1012.7
20260502220015 15 338 9.7 25.7 0.00 0.00 0.00 35 1012.9
20260502215036 15 0 11.3 22.5 0.00 0.00 0.00 35 1012.9
20260502214036 15 23 14.5 30.6 0.00 0.00 0.00 34 1012.9
20260502213016 14 0 6.4 17.7 0.00 0.00 0.00 36 1012.9
20260502212015 15 0 8.0 17.7 0.00 0.00 0.00 32 1013.1
20260502211015 15 338 4.8 12.9 0.00 0.00 0.00 34 1013.2
20260502210016 15 338 8.0 24.1 0.00 0.00 0.00 37 1013.5
20260502205035 15 23 17.7 29.0 0.00 0.00 0.00 31 1013.7
20260502204015 15 23 8.0 22.5 0.00 0.00 0.00 34 1013.7
20260502203016 15 315 6.4 20.9 0.00 0.00 0.00 35 1013.8
20260502202015 15 0 11.3 20.9 0.00 0.00 0.00 34 1014.1
20260502201016 15 0 9.7 25.7 0.00 0.00 0.00 35 1014.1
20260502200015 15 338 9.7 20.9 0.00 0.00 0.00 37 1014.3
20260502195036 15 0 11.3 24.1 0.00 0.00 0.00 39 1014.5
20260502194015 14 0 9.7 20.9 0.00 0.00 0.00 33 1014.8
20260502193016 14 0 4.8 11.3 0.00 0.00 0.00 35 1014.8
20260502192016 13 0 9.7 17.7 0.00 0.00 0.00 35 1014.9
20260502191015 15 338 8.0 17.7 0.00 0.00 0.00 38 1015.2
20260502190015 13 338 4.8 12.9 0.00 0.00 0.00 35 1015.2
20260502185035 13 338 9.7 20.9 0.00 0.00 0.00 34 1015.5
20260502184016 13 315 4.8 12.9 0.00 0.00 0.00 39 1015.5
20260502182035 13 0 11.3 22.5 0.00 0.00 0.00 36 1015.8
20260502181015 13 338 6.4 12.9 0.00 0.00 0.00 38 1015.9